Home > Products > Valid Products > TAF

000
FTUS45 KTFX 210600 AAA
TAFCTB
TAF AMD
KCTB 210622Z 2106/2206 35010KT P6SM SCT008 OVC025
      TEMPO 2106/2110 BKN008
     FM211600 36008KT P6SM -SHRA BKN040 OVC070 PROB30 2118/2124 -RA
      OVC025=



000
FTUS45 KTFX 210600 AAA
TAFGTF
TAF AMD
KGTF 210620Z 2106/2206 31010KT P6SM -SHRA SCT015 OVC060
      TEMPO 2107/2109 RA BKN015
     FM211000 32005KT P6SM -RA SCT020 OVC050 PROB30 2115/2121 5SM
      -RA BR OVC025
     FM212300 03007KT P6SM SCT030 OVC060=



000
FTUS45 KTFX 210500
TAFBZN
TAF
KBZN 210520Z 2106/2206 15008KT P6SM SCT070 BKN120
     FM211400 VRB06KT P6SM VCSH BKN060 OVC090
      TEMPO 2118/2122 5SM -RA OVC025
     FM220000 02006KT P6SM SCT050 BKN090=



000
FTUS45 KTFX 210500
TAFLWT
TAF
KLWT 210520Z 2106/2206 33006KT P6SM BKN100
     FM210900 25007KT P6SM -SHRA SCT020 OVC035 PROB30 2117/2123 5SM
      -RA BR SCT015 OVC025=



000
FTUS45 KTFX 210500
TAFGTF
TAF
KGTF 210520Z 2106/2206 34010KT P6SM VCSH SCT060 BKN080
     FM211000 32005KT P6SM -RA SCT020 OVC050 PROB30 2115/2121 5SM
      -RA BR OVC025
     FM212300 03007KT P6SM SCT030 OVC060=



000
FTUS45 KTFX 210500
TAFHVR
TAF
KHVR 210520Z 2106/2206 30006KT P6SM SCT050 BKN090
     FM210900 36007KT P6SM -SHRA SCT020 OVC040 PROB30 2116/2122 5SM
      -RA BR SCT015 OVC025=



000
FTUS45 KTFX 210500
TAFCTB
TAF
KCTB 210520Z 2106/2206 35010KT P6SM VCSH BKN050 OVC080
     FM210900 36013KT P6SM SCT060 OVC100
     FM211200 36008KT P6SM -SHRA BKN040 OVC070 PROB30 2118/2124 -RA
      OVC025=



000
FTUS45 KTFX 210500
TAFHLN
TAF
KHLN 210520Z 2106/2206 VRB03KT P6SM SCT060 BKN120
     FM211200 28007KT P6SM -SHRA BKN040 OVC060
      TEMPO 2116/2120 5SM -RA BR SCT015 OVC025
     FM220000 36008KT P6SM SCT040 BKN090=



000
FTUS45 KTFX 202300
TAFGTF
TAF
KGTF 202336Z 2100/2124 VRB06KT P6SM VCTS SCT060CB OVC100
     FM210200 VRB05KT P6SM SCT070 BKN150
     FM211000 32005KT P6SM -RA SCT020 OVC050 PROB30 2115/2121 5SM
      -RA BR OVC025=



000
FTUS45 KTFX 202300
TAFCTB
TAF
KCTB 202336Z 2100/2124 VRB05KT P6SM VCTS SCT040CB BKN070
      TEMPO 2100/2102 VRB25G35KT -TSRA BKN040CB
     FM210400 35008KT 5SM -RA BR SCT015 OVC025=



000
FTUS45 KTFX 202300
TAFLWT
TAF
KLWT 202336Z 2100/2124 VRB05KT P6SM VCTS SCT070CB BKN110
      TEMPO 2100/2102 VRB15G30KT -TSRA BKN040CB
     FM210400 33006KT P6SM SCT060 BKN150
     FM210900 25007KT P6SM -SHRA SCT020 OVC030=



000
FTUS45 KTFX 202300
TAFHVR
TAF
KHVR 202336Z 2100/2124 34010KT P6SM BKN070
     FM210200 30006KT P6SM VCTS SCT050CB BKN080
     FM210900 36007KT P6SM -SHRA SCT020 OVC040 PROB30 2115/2121 5SM
      -RA BR SCT015 OVC025=



000
FTUS45 KTFX 202300
TAFBZN
TAF
KBZN 202336Z 2100/2124 VRB06KT P6SM VCTS SCT090CB BKN120
      TEMPO 2100/2101 VRB15G30KT
     FM210200 VRB04KT P6SM -SHRA SCT040 BKN090
     FM210600 15008KT P6SM SCT070 BKN120
     FM211400 VRB06KT P6SM VCSH BKN060 OVC090=



000
FTUS45 KTFX 202300
TAFHLN
TAF
KHLN 202336Z 2100/2124 VRB06KT P6SM VCTS SCT060CB BKN100
     FM210200 VRB03KT P6SM SCT040 BKN060
     FM211200 28007KT P6SM -SHRA BKN040 OVC060=



000
FTUS45 KTFX 202000 AAA
TAFLWT
TAF AMD
KLWT 202059Z 2021/2118 VRB05KT P6SM VCTS SCT070CB BKN110
      TEMPO 2021/2101 VRB15G30KT -TSRA BKN040CB
     FM210100 33006KT P6SM -RA SCT040 BKN060
      TEMPO 2102/2105 5SM -RA BR SCT020 OVC040
     FM211000 VRB04KT P6SM SCT070 BKN150=



000
FTUS45 KTFX 202000 AAA
TAFHVR
TAF AMD
KHVR 202058Z 2021/2118 02010KT P6SM VCSH SCT040 BKN090
      TEMPO 2022/2101 VRB15G30KT -TSRA SCT040CB
     FM210900 36007KT P6SM -SHRA SCT020 BKN040=



000
FTUS45 KTFX 202000 AAA
TAFCTB
TAF AMD
KCTB 202057Z 2021/2118 VRB05KT P6SM SCT090
      TEMPO 2021/2024 VRB15G30KT -TSRA BKN060CB
     FM210400 35008KT 5SM -RA BR SCT015 OVC025=



000
FTUS45 KTFX 202000 AAA
TAFHLN
TAF AMD
KHLN 202056Z 2021/2118 VRB06KT P6SM VCTS SCT060CB BKN100
      TEMPO 2021/2024 VRB15G30KT
     FM210100 VRB03KT P6SM VCSH SCT040 BKN060=



000
FTUS45 KTFX 202000 AAA
TAFBZN
TAF AMD
KBZN 202056Z 2021/2118 VRB06KT P6SM VCTS SCT090CB BKN120
      TEMPO 2022/2101 VRB15G30KT
     FM210200 VRB04KT P6SM -SHRA SCT040 BKN090=



000
FTUS45 KTFX 202000 AAB
TAFGTF
TAF AMD
KGTF 202046Z 2021/2118 30011KT P6SM VCTS SCT060CB OVC080
      TEMPO 2021/2023 VRB15G30KT
     FM210100 VRB05KT P6SM -SHRA SCT035 BKN060
     FM210800 31004KT P6SM SCT070 BKN150
     FM211500 32005KT P6SM -RA SCT020 BKN070=



000
FTUS45 KTFX 202000 AAA
TAFGTF
TAF AMD
KGTF 202008Z 2020/2118 28014KT P6SM VCTS SCT060CB OVC080
      TEMPO 2021/2023 33012G25KT
     FM210100 VRB05KT P6SM -SHRA SCT035 BKN060
     FM210800 31004KT P6SM SCT070 BKN150
     FM211500 32005KT P6SM -RA SCT020 BKN070=



000
FTUS45 KTFX 201700
TAFBZN
TAF
KBZN 201734Z 2018/2118 VRB04KT P6SM FEW100 SCT150
     FM202300 VRB06KT P6SM VCTS SCT090CB BKN120
      TEMPO 2023/2101 35012G18KT
     FM210200 VRB04KT P6SM -SHRA SCT040 BKN090=



000
FTUS45 KTFX 201700
TAFLWT
TAF
KLWT 201734Z 2018/2118 VRB05KT P6SM SCT080 BKN150
     FM202100 VRB05KT P6SM VCTS SCT070CB BKN110
     FM210100 33006KT P6SM -RA SCT040 BKN060
      TEMPO 2102/2105 5SM -RA BR SCT020 OVC040
     FM211000 VRB04KT P6SM SCT070 BKN150=



000
FTUS45 KTFX 201700
TAFGTF
TAF
KGTF 201734Z 2018/2118 29010KT P6SM SCT090 BKN120
     FM202100 VRB06KT P6SM VCTS SCT060CB
      TEMPO 2021/2023 35010G18KT
     FM210100 VRB05KT P6SM -SHRA SCT035 BKN060
     FM210800 31004KT P6SM SCT070 BKN150
     FM211500 32005KT P6SM -RA SCT020 BKN070=



000
FTUS45 KTFX 201700
TAFHVR
TAF
KHVR 201734Z 2018/2118 VRB04KT P6SM SCT080 BKN150
     FM202300 02010KT P6SM VCSH SCT040 BKN090
      TEMPO 2023/2101 35013G21KT -TSRA SCT040CB
     FM210900 36007KT P6SM -SHRA SCT020 BKN040=



000
FTUS45 KTFX 201700
TAFHLN
TAF
KHLN 201734Z 2018/2118 VRB05KT P6SM SCT150
     FM201900 28007KT P6SM SCT090 BKN150
     FM202100 VRB06KT P6SM VCTS SCT060CB BKN100
      TEMPO 2022/2024 35009G15KT
     FM210100 VRB03KT P6SM VCSH SCT040 BKN060=



000
FTUS45 KTFX 201700
TAFCTB
TAF
KCTB 201734Z 2018/2118 VRB05KT P6SM SCT090
      TEMPO 2020/2022 35012G20KT -TSRA BKN060CB
     FM210400 35008KT 5SM -RA BR SCT015 OVC025=



000
FTUS45 KTFX 201125 CCA
TAFLWT

KLWT 201125Z 2012/2112 VRB05KT P6SM SCT080 BKN150
     FM202100 VRB05KT P6SM VCTS SCT070CB BKN110
     FM210100 33006KT P6SM VCSH SCT040 BKN080
     FM210900 VRB05KT 5SM -RA BR SCT020 OVC040=



000
FTUS45 KTFX 201124
TAFHVR

KHVR 201124Z 2012/2112 32009KT P6SM SCT080 BKN150
     FM210000 02010KT P6SM VCSH SCT040 BKN090
     FM210900 36007KT P6SM -SHRA SCT020 BKN040=



000
FTUS45 KTFX 201125
TAFLWT

KLWT 201124Z 2012/2112 VRB05KT P6SM SCT080 BKN150
     FM202100 VRB05KT P6SM VCTS SCT070CB BKN110
     FM210100 33006KT P6SM -VCSH SCT040 BKN080
     FM210900 VRB05KT 5SM -RA BR SCT020 OVC040=



000
FTUS45 KTFX 201123
TAFCTB

KCTB 201123Z 2012/2112 33010KT P6SM VCSH SCT035 BKN100
     FM201900 VRB03KT P6SM VCTS SCT040CB BKN090
      TEMPO 2020/2022 VRB15G30KT TSRA BKN060CB
     FM210300 35008KT 5SM -RA BR SCT015 OVC025=



000
FTUS45 KTFX 201122
TAFHLN

KHLN 201122Z 2012/2112 VRB05KT P6SM SCT100 BKN150
     FM201900 28007KT P6SM VCTS SCT090CB BKN150
     FM210200 VRB03KT P6SM VCSH SCT040 BKN090=



000
FTUS45 KTFX 201122
TAFGTF

KGTF 201122Z 2012/2112 VRB05KT P6SM SCT090 BKN150
      TEMPO 2012/2014 VRB15G30KT TSRA BKN060CB
     FM201600 29010KT P6SM SCT060 BKN120
     FM210200 02006KT P6SM -SHRA SCT035 BKN060=



000
FTUS45 KTFX 201120
TAFBZN

KBZN 201120Z 2012/2112 VRB04KT P6SM FEW100 BKN150
     FM202200 31010G20KT P6SM VCTS SCT090CB BKN120
     FM210200 VRB04KT P6SM -SHRA SCT040 BKN090=



000
FTUS45 KTFX 200608 AAA
TAFGTF

TAF AMD
KGTF 200608Z 2006/2106 26006KT P6SM BKN150
      TEMPO 2006/2007 5SM -SHRA BKN030
     FM201500 31010KT P6SM SCT040 BKN100
     FM202000 02006KT P6SM -RA OVC040=



000
FTUS45 KTFX 200524
TAFCTB

TAF
KCTB 200520Z 2006/2106 34010KT P6SM VCSH SCT060 BKN150
      TEMPO 2006/2009 -SHRA BKN050
     FM200900 33010KT P6SM SCT035 BKN100
      TEMPO 2016/2019 -SHRA BKN040
     FM201900 32006KT P6SM SCT020 BKN040
     FM202100 35008KT P6SM -SHRA BKN025=



000
FTUS45 KTFX 200521
TAFBZN

TAF
KBZN 200520Z 2006/2106 15006KT P6SM SCT100 BKN150
     FM201800 29006KT P6SM SCT120 SCT180
     FM202200 31010G20KT P6SM VCTS SCT090CB BKN120
     FM210200 VRB06KT P6SM -RA OVC040=



000
FTUS45 KTFX 200525
TAFLWT

TAF
KLWT 200520Z 2006/2106 VRB04KT P6SM SCT080 BKN150
     FM200900 33008KT P6SM VCSH SCT050 BKN100
     FM201500 34005KT P6SM SCT040 BKN080
      TEMPO 2021/2101 VRB15G25KT -TSRA BKN040CB
     FM210100 33006KT P6SM -SHRA SCT020 BKN040=



000
FTUS45 KTFX 200524
TAFGTF

TAF
KGTF 200520Z 2006/2106 26006KT P6SM BKN150
     FM201500 31010KT P6SM SCT040 BKN100
     FM202000 02006KT P6SM -RA OVC040=



000
FTUS45 KTFX 200522
TAFHLN

TAF
KHLN 200520Z 2006/2106 VRB06KT P6SM BKN150
     FM200800 VRB03KT P6SM BKN100
     FM201500 35006KT P6SM OVC120
     FM201900 26006KT P6SM BKN090=



000
FTUS45 KTFX 200524
TAFHVR

TAF
KHVR 200520Z 2006/2106 31010KT P6SM SCT080 BKN150
      TEMPO 2007/2009 VRB15G20KT -SHRA BKN050
     FM200900 33008KT P6SM SCT050 BKN100
     FM201500 34005KT P6SM SCT040 BKN080
     FM210000 33006KT P6SM -SHRA SCT020 BKN040=



000
FTUS45 KTFX 200454 CCA
TAFHVR

KHVR 200450Z 2005/2024 25010KT P6SM SCT100 BKN150
      TEMPO 2005/2007 VRB20G30 -TSRA BKN040CB
     FM200900 32010G20KT P6SM VCSH SCT030 BKN090
     FM201100 29006KT P6SM BKN020
     FM201800 32006KT P6SM VCSH BKN040=



000
FTUS45 KTFX 192300
TAFCTB
TAF
KCTB 192336Z 2000/2024 34010KT P6SM VCTS SCT060CB BKN150
      TEMPO 2000/2003 VRB20G45KT 3SM -TSRA BKN060CB
     FM200600 35011KT P6SM VCSH SCT030 OVC040
     FM200800 32010KT P6SM SCT035 BKN100
     FM201000 28006KT P6SM SCT020 BKN035 PROB30 2016/2020 5SM -RA
      BKN030=



000
FTUS45 KTFX 192300
TAFBZN
TAF
KBZN 192336Z 2000/2024 34010KT P6SM SCT070 BKN120
      TEMPO 2000/2004 VRB20G45KT 5SM -TSRA BKN060CB
     FM200600 VRB04KT P6SM BKN120
     FM201800 29006KT P6SM SCT120 SCT180
     FM202200 31010G20KT P6SM VCTS SCT090CB BKN120=



000
FTUS45 KTFX 192300
TAFHVR
TAF
KHVR 192336Z 2000/2024 25010KT P6SM SCT100
     FM200900 32010G20KT P6SM VCSH SCT030 BKN090
     FM201100 29006KT P6SM BKN020
     FM201800 32006KT P6SM VCSH BKN040=



000
FTUS45 KTFX 192300
TAFGTF
TAF
KGTF 192336Z 2000/2024 26010KT P6SM SCT100 BKN150
     FM200300 26006KT P6SM VCSH SCT070 BKN120
     FM200700 26006KT P6SM BKN150
     FM201500 31010KT P6SM SCT040 BKN100=



000
FTUS45 KTFX 192300
TAFHLN
TAF
KHLN 192336Z 2000/2024 27010KT P6SM VCTS SCT090CB BKN150
     FM200600 VRB03KT P6SM BKN100
     FM201500 35006KT P6SM OVC120=



000
FTUS45 KTFX 192300
TAFLWT
TAF
KLWT 192336Z 2000/2024 26006KT P6SM VCTS SCT070CB SCT150
     FM200300 VRB06KT P6SM VCSH SCT070 BKN120
      TEMPO 2003/2007 VRB15G40KT 2SM -TSRA BKN040CB
     FM201200 29006KT P6SM BKN100=



000
FTUS45 KTFX 192200 AAA
TAFBZN
TAF AMD
KBZN 192241Z 1923/2018 34008G18KT P6SM SCT070 BKN120
      TEMPO 1923/2001 VRB20G45KT 2SM -TSRA BKN060CB
     FM200600 VRB04KT P6SM BKN120=



000
FTUS45 KTFX 192100 AAA
TAFLWT
TAF AMD
KLWT 192145Z 1922/2018 29010G20KT P6SM BKN120
     FM192300 VRB06KT P6SM VCSH SCT080 BKN100
      TEMPO 1923/2002 VRB20G40KT -TSRA BKN080CB
     FM200300 30006KT P6SM SCT050 OVC080=



000
FTUS45 KTFX 192100 AAB
TAFCTB
TAF AMD
KCTB 192141Z 1922/2018 03012KT P6SM VCTS SCT060CB BKN100
      TEMPO 1922/2002 VRB20G45KT P6SM BKN060CB
     FM200600 35011KT P6SM VCSH SCT030 OVC040=



000
FTUS45 KTFX 192100 AAA
TAFHLN
TAF AMD
KHLN 192139Z 1922/2018 27010G20KT P6SM VCTS SCT080CB BKN120
     FM201000 VRB03KT P6SM BKN100=



000
FTUS45 KTFX 191800 AAA
TAFCTB
TAF AMD
KCTB 191849Z 1919/2018 28010G20KT P6SM VCSH SCT060 BKN080
     FM192200 28015G25KT P6SM VCTS SCT060CB BKN080
     FM200600 35011KT P6SM VCSH SCT030 OVC040=



000
FTUS45 KTFX 191700
TAFCTB
TAF
KCTB 191738Z 1918/2018 28010G20KT P6SM BKN120
     FM192200 28015G25KT P6SM VCSH SCT060 BKN100
     FM200600 35011KT P6SM VCSH SCT030 OVC040=



000
FTUS45 KTFX 191700
TAFGTF
TAF
KGTF 191738Z 1918/2018 26012G22KT P6SM SKC
     FM200100 29010G18KT P6SM SCT100 BKN150
     FM200500 32008KT P6SM BKN100
     FM201000 VRB06KT P6SM SCT060 BKN100=



000
FTUS45 KTFX 191700
TAFGTF
TAF
KGTF 191737Z 1918/2018 26012G22KT P6SM SKC
     FM200100 28011G18KT P6SM SCT100 BKN150
     FM200800 30008KT P6SM BKN100
     FM201000 VRB06KT P6SM SCT060 BKN100=



000
FTUS45 KTFX 191700
TAFHVR
TAF
KHVR 191730Z 1918/2018 22014KT P6SM SKC
     FM192300 28011G18KT P6SM BKN120
     FM201000 33006KT P6SM SCT040 OVC060=



000
FTUS45 KTFX 191700
TAFCTB
TAF
KCTB 191730Z 1918/2018 28010G20KT P6SM BKN120
     FM192200 28015G25KT P6SM VCSH SCT060 BKN100
     FM200700 35011KT P6SM VCSH SCT030 OVC040=



000
FTUS45 KTFX 191700
TAFLWT
TAF
KLWT 191730Z 1918/2018 28008G18KT P6SM BKN120
     FM200200 VRB06KT P6SM VCSH SCT080 BKN100
     FM201000 30006KT P6SM SCT050 OVC080=



000
FTUS45 KTFX 191700
TAFHLN
TAF
KHLN 191730Z 1918/2018 26005KT P6SM SKC
     FM192300 27008KT P6SM VCSH BKN120
     FM201000 VRB03KT P6SM BKN100=



000
FTUS45 KTFX 191700
TAFBZN
TAF
KBZN 191730Z 1918/2018 VRB06KT P6SM FEW120
     FM192200 34006KT P6SM VCSH BKN120
     FM200600 VRB04KT P6SM BKN120=



000
FTUS45 KTFX 191700
TAFGTF
TAF
KGTF 191730Z 1918/2018 26012G22KT P6SM SKC
     FM200100 28011G18KT P6SM SCT100 BKN150
     FM200500 30008KT P6SM BKN100
     FM201000 VRB06KT P6SM SCT060 BKN100=



000
FTUS45 KTFX 191100
TAFHLN
TAF
KHLN 191127Z 1912/2012 26005KT P6SM SKC
     FM192000 35008KT P6SM SCT090 SCT180
     FM200600 VRB03KT P6SM BKN200=



000
FTUS45 KTFX 191100
TAFCTB
TAF
KCTB 191127Z 1912/2012 27007KT P6SM FEW150
     FM191600 27011KT P6SM VCSH BKN080
     FM200200 28010KT P6SM BKN120=



000
FTUS45 KTFX 191100
TAFLWT
TAF
KLWT 191127Z 1912/2012 12006KT P6SM FEW180
     FM192000 29008G18KT P6SM SCT100 SCT180
     FM200200 VRB06KT P6SM SCT100 BKN150=



000
FTUS45 KTFX 191100
TAFGTF
TAF
KGTF 191127Z 1912/2012 VRB06KT P6SM SCT100
     FM191900 25010G20KT P6SM SCT100 SCT180
     FM200200 30008KT P6SM SCT180
     FM200900 VRB06KT P6SM BKN200=



000
FTUS45 KTFX 191100
TAFBZN
TAF
KBZN 191127Z 1912/2012 VRB06KT P6SM SCT100 SCT150
     FM192000 34006KT P6SM VCSH SCT090 SCT180
     FM200600 VRB04KT P6SM BKN150=



000
FTUS45 KTFX 191100
TAFHVR
TAF
KHVR 191127Z 1912/2012 VRB06KT P6SM SKC
     FM191600 25011G18KT P6SM SCT090 BKN180
     FM200200 28006KT P6SM SCT100 BKN150=



000
FTUS45 KTFX 190500
TAFBZN
TAF
KBZN 190520Z 1906/2006 VRB06KT P6SM SCT100 SCT150
     FM192000 34006KT P6SM SCT090 SCT180=



000
FTUS45 KTFX 190500
TAFHVR
TAF
KHVR 190520Z 1906/2006 VRB06KT P6SM SKC
     FM191500 25006KT P6SM SCT180
     FM192000 25010G20KT P6SM SCT100 SCT180
     FM200200 28006KT P6SM SCT100 BKN150=



000
FTUS45 KTFX 190500
TAFHLN
TAF
KHLN 190520Z 1906/2006 26005KT P6SM SKC
     FM192000 35008KT P6SM SCT090 SCT180=



000
FTUS45 KTFX 190500
TAFGTF
TAF
KGTF 190520Z 1906/2006 VRB06KT P6SM SCT100
     FM191900 25010G20KT P6SM SCT100 SCT180
     FM200200 30008KT P6SM SCT180=



000
FTUS45 KTFX 190500
TAFCTB
TAF
KCTB 190520Z 1906/2006 27007KT P6SM SKC
     FM191900 26012G22KT P6SM SCT100 SCT180
     FM200200 26010KT P6SM BKN120=



000
FTUS45 KTFX 190500
TAFLWT
TAF
KLWT 190520Z 1906/2006 12006KT P6SM SCT100 SCT180
     FM192000 29008G18KT P6SM SCT100 SCT180
     FM200200 VRB06KT P6SM SCT100 BKN150=



000
FTUS45 KTFX 200448 AAA
TAFHVR

KHVR 190450Z 2005/2024 25010KT P6SM SCT100 BKN150
      TEMPO 2005/2007 VRB20G30 -TSRA BKN040CB
     FM200900 32010G20KT P6SM VCSH SCT030 BKN090
     FM201100 29006KT P6SM BKN020
     FM201800 32006KT P6SM VCSH BKN040=



000
FTUS45 KTFX 182300
TAFGTF
TAF
KGTF 182320Z 1900/1924 VRB06KT P6SM SCT100 SCT180
     FM191900 23010G20KT P6SM SCT100 SCT180=



000
FTUS45 KTFX 182300
TAFCTB
TAF
KCTB 182320Z 1900/1924 30010G20KT P6SM SCT080 SCT180
     FM190200 25006KT P6SM SCT180
     FM191900 26012G22KT P6SM SCT180=



000
FTUS45 KTFX 182300
TAFBZN
TAF
KBZN 182320Z 1900/1924 33006KT P6SM SCT080 SCT150
     FM190200 15005KT P6SM SCT150
     FM192000 34006KT P6SM SCT090 SCT180=



000
FTUS45 KTFX 182300
TAFHVR
TAF
KHVR 182320Z 1900/1924 VRB06KT P6SM SKC
     FM191500 25006KT P6SM SCT180
     FM192000 25010G20KT P6SM SCT100 SCT180=



000
FTUS45 KTFX 182300
TAFLWT
TAF
KLWT 182320Z 1900/1924 VRB06KT P6SM SCT080 SCT180
     FM190400 VRB06KT P6SM SKC
     FM192000 29008G18KT P6SM SCT100 SCT180=



000
FTUS45 KTFX 182300
TAFHLN
TAF
KHLN 182320Z 1900/1924 24010G18KT P6SM SCT070 SCT150
     FM190300 VRB06KT P6SM SCT150
     FM192000 35008KT P6SM SCT090 SCT180=



000
FTUS45 KTFX 182100 AAA
TAFLWT
TAF AMD
KLWT 182100Z 1821/1918 VRB06KT P6SM VCTS SCT070CB BKN090
      TEMPO 1821/1901 VRB15G25KT
     FM190300 VRB06KT P6SM SKC=



000
FTUS45 KTFX 182000 AAA
TAFHLN
TAF AMD
KHLN 182059Z 1821/1918 VRB06KT P6SM SCT090
      TEMPO 1821/1824 28015G25KT=



000
FTUS45 KTFX 181800 AAA
TAFGTF
TAF AMD
KGTF 181842Z 1819/1918 26011KT P6SM SKC
     FM190200 21007KT P6SM SKC=



000
FTUS45 KTFX 181700
TAFBZN
TAF
KBZN 181724Z 1818/1918 VRB06KT P6SM SKC=



000
FTUS45 KTFX 181700
TAFHLN
TAF
KHLN 181724Z 1818/1918 VRB06KT P6SM SCT090=



000
FTUS45 KTFX 181700
TAFGTF
TAF
KGTF 181724Z 1818/1918 22007KT P6SM SKC
     FM182000 25011KT P6SM SKC
     FM190200 21007KT P6SM SKC=



000
FTUS45 KTFX 181700
TAFHVR
TAF
KHVR 181724Z 1818/1918 24008KT P6SM FEW070 SCT120
     FM190300 VRB06KT P6SM SCT120=



000
FTUS45 KTFX 181700
TAFCTB
TAF
KCTB 181724Z 1818/1918 VRB06KT P6SM SKC
     FM182000 25008KT P6SM SCT070
     FM190300 VRB06KT P6SM SKC=



000
FTUS45 KTFX 181700
TAFLWT
TAF
KLWT 181724Z 1818/1918 VRB06KT P6SM SKC
     FM182100 VRB06KT P6SM VCTS SCT070CB BKN090
     FM190300 VRB06KT P6SM SKC=



000
FTUS45 KTFX 181100
TAFLWT
TAF
KLWT 181120Z 1812/1912 VRB04KT P6SM SCT150
     FM190300 16008KT P6SM FEW200=



000
FTUS45 KTFX 181100
TAFBZN
TAF
KBZN 181120Z 1812/1912 VRB04KT P6SM FEW200=



000
FTUS45 KTFX 181100
TAFHVR
TAF
KHVR 181120Z 1812/1912 24008KT P6SM FEW080 SCT180
     FM190200 VRB06KT P6SM SCT150=



000
FTUS45 KTFX 181100
TAFCTB
TAF
KCTB 181120Z 1812/1912 01006KT P6SM SCT150
     FM182000 25008KT P6SM VCTS SCT080CB BKN110
     FM190200 23006KT P6SM SCT150=



000
FTUS45 KTFX 181100
TAFGTF
TAF
KGTF 181120Z 1812/1912 22010KT P6SM FEW150
     FM190200 VRB06KT P6SM FEW200=



000
FTUS45 KTFX 181100
TAFHLN
TAF
KHLN 181120Z 1812/1912 VRB04KT P6SM FEW150=



    US Dept of Commerce
    National Oceanic and Atmospheric Administration
    National Weather Service
    1325 East West Highway
    Silver Spring, MD 20910
    Page Author: NWS Internet Services Team
Disclaimer
Information Quality
Credits
Glossary
Privacy Policy
Freedom of Information Act (FOIA)
About Us
Career Opportunities